Time;durP1;ratioP1;P1;durP2;ratioP2;P2;SDS_P1;SDS_P2;PMS_P1;PMS_P2;Temp;Humidity;BMP_temperature;BMP_pressure;BME280_temperature;BME280_humidity;BME280_pressure;Samples;Min_cycle;Max_cycle;Signal;HPM_P1;HPM_P2
2023/04/18 00:00:33;;;;;;;;;58.75;48.75;;;;;12.21;62.14;101508.78;5054781;28;45466;-58
2023/04/18 00:02:59;;;;;;;;;60.00;49.00;;;;;12.21;62.01;101509.66;5054537;28;45506;-58
2023/04/18 00:05:25;;;;;;;;;60.00;48.75;;;;;12.22;62.98;101508.72;5054942;28;45498;-58
2023/04/18 00:07:51;;;;;;;;;59.75;49.50;;;;;12.20;63.07;101507.94;5054812;28;45540;-58
2023/04/18 00:10:16;;;;;;;;;57.50;48.50;;;;;12.13;62.87;101494.03;5054823;28;45502;-57
2023/04/18 00:12:42;;;;;;;;;62.00;50.00;;;;;12.24;62.68;101511.34;5054277;28;45629;-58
2023/04/18 00:15:08;;;;;;;;;58.25;47.75;;;;;12.20;63.26;101501.75;5054304;28;49799;-58
2023/04/18 00:17:37;;;;;;;;;61.50;49.50;;;;;12.16;62.31;101493.94;5054904;28;45534;-58
2023/04/18 00:20:03;;;;;;;;;64.25;50.75;;;;;12.14;62.97;101495.78;5056636;28;45408;-58
2023/04/18 00:22:28;;;;;;;;;59.50;47.75;;;;;12.12;62.77;101502.84;5056688;28;47248;-58
2023/04/18 00:24:54;;;;;;;;;63.50;51.00;;;;;12.10;62.72;101494.13;5057762;28;45483;-58
2023/04/18 00:27:20;;;;;;;;;65.25;52.50;;;;;12.07;62.82;101493.34;5058319;28;45475;-58
2023/04/18 00:29:46;;;;;;;;;62.75;49.00;;;;;12.06;62.58;101494.22;5057928;28;45409;-58
2023/04/18 00:32:12;;;;;;;;;60.00;48.25;;;;;12.04;63.21;101493.44;5057681;28;45528;-58
2023/04/18 00:34:37;;;;;;;;;65.50;50.75;;;;;12.00;62.55;101503.19;5057775;28;45462;-58
2023/04/18 00:37:03;;;;;;;;;63.00;50.25;;;;;11.96;63.18;101485.72;5057763;28;45675;-58
2023/04/18 00:39:28;;;;;;;;;63.25;50.50;;;;;11.89;63.47;101486.78;5057860;28;45432;-57
2023/04/18 00:41:54;;;;;;;;;61.25;49.50;;;;;11.92;62.79;101476.16;5057420;28;53711;-58
2023/04/18 00:44:19;;;;;;;;;67.25;52.50;;;;;11.96;63.18;101501.53;5057592;28;45422;-57
2023/04/18 00:46:44;;;;;;;;;68.25;55.00;;;;;11.95;62.92;101494.53;5057882;28;45484;-58
2023/04/18 00:49:11;;;;;;;;;67.50;54.00;;;;;11.87;63.23;101483.31;5057009;28;57135;-58
2023/04/18 00:51:38;;;;;;;;;67.00;52.00;;;;;11.89;63.86;101494.69;5056364;28;47268;-58
2023/04/18 00:54:06;;;;;;;;;65.75;52.25;;;;;11.89;64.08;101489.41;5057683;28;45756;-58
2023/04/18 00:56:31;;;;;;;;;66.75;52.00;;;;;11.80;63.91;101473.81;5057508;28;45534;-58
2023/04/18 00:58:58;;;;;;;;;65.75;52.25;;;;;11.90;63.95;101477.97;5057432;28;45585;-58
2023/04/18 01:01:23;;;;;;;;;70.75;56.25;;;;;11.89;63.61;101471.81;5055865;28;46560;-58
2023/04/18 01:03:48;;;;;;;;;66.00;53.50;;;;;11.91;62.99;101475.28;5057630;28;45438;-58
2023/04/18 01:06:14;;;;;;;;;66.50;52.50;;;;;11.91;63.35;101477.94;5056031;28;45433;-57
2023/04/18 01:08:41;;;;;;;;;65.00;51.25;;;;;11.88;63.01;101480.66;5057627;28;45418;-58
2023/04/18 01:11:06;;;;;;;;;66.75;53.50;;;;;11.87;62.66;101472.78;5057127;28;46335;-57
2023/04/18 01:13:31;;;;;;;;;65.50;52.00;;;;;11.86;62.81;101465.78;5057145;28;45371;-58
2023/04/18 01:15:57;;;;;;;;;67.00;53.25;;;;;11.84;63.10;101473.69;5056957;28;50918;-58
2023/04/18 01:18:24;;;;;;;;;64.75;53.25;;;;;11.83;64.15;101473.75;5057113;28;45696;-58
2023/04/18 01:20:51;;;;;;;;;65.75;51.25;;;;;11.85;63.08;101469.31;5057022;28;46130;-58
2023/04/18 01:23:17;;;;;;;;;67.50;52.50;;;;;11.82;63.61;101464.09;5057326;28;45538;-58
2023/04/18 01:25:44;;;;;;;;;68.00;53.75;;;;;11.78;64.17;101473.00;5057363;28;45438;-58
2023/04/18 01:28:12;;;;;;;;;69.50;54.50;;;;;11.74;63.74;101464.31;5056943;28;45537;-58
2023/04/18 01:30:37;;;;;;;;;65.75;52.00;;;;;11.74;63.84;101464.31;5056206;28;46396;-57
2023/04/18 01:33:04;;;;;;;;;67.00;53.00;;;;;11.74;64.48;101451.13;5057096;28;45325;-57
2023/04/18 01:35:30;;;;;;;;;67.25;52.75;;;;;11.77;64.70;101463.34;5056930;28;45533;-58
2023/04/18 01:37:56;;;;;;;;;67.00;53.50;;;;;11.76;63.77;101456.34;5057164;28;45543;-58
2023/04/18 01:40:22;;;;;;;;;69.00;53.50;;;;;11.72;63.84;101451.16;5055510;28;45447;-58
2023/04/18 01:42:47;;;;;;;;;67.25;54.75;;;;;11.65;63.50;101446.94;5057095;28;45518;-58
2023/04/18 01:45:13;;;;;;;;;68.50;53.75;;;;;11.67;63.66;101454.84;5056908;28;45522;-58
2023/04/18 01:47:38;;;;;;;;;69.75;54.25;;;;;11.69;64.44;101455.66;5055535;28;45656;-58
2023/04/18 01:50:04;;;;;;;;;64.25;52.50;;;;;11.65;64.47;101449.59;5056688;28;45517;-58
2023/04/18 01:52:30;;;;;;;;;67.50;54.00;;;;;11.61;64.09;101440.06;5056863;28;45537;-58
2023/04/18 01:54:55;;;;;;;;;64.00;51.00;;;;;11.67;64.18;101454.84;5056898;28;45415;-58
2023/04/18 01:57:20;;;;;;;;;71.75;56.00;;;;;11.65;64.83;101443.47;5055354;28;45649;-57
2023/04/18 01:59:46;;;;;;;;;70.00;55.00;;;;;11.65;64.51;101452.22;5056569;28;46069;-58
2023/04/18 02:02:11;;;;;;;;;68.75;55.50;;;;;11.55;64.21;101439.31;5056644;28;45457;-58
2023/04/18 02:04:36;;;;;;;;;67.25;53.25;;;;;11.60;64.50;101447.97;5056584;28;45354;-57
2023/04/18 02:07:02;;;;;;;;;64.25;51.25;;;;;11.55;64.53;101434.91;5056666;28;45676;-57
2023/04/18 02:09:27;;;;;;;;;68.00;55.00;;;;;11.62;64.92;101444.41;5055066;28;50564;-58
2023/04/18 02:11:55;;;;;;;;;71.75;55.75;;;;;11.58;64.58;101441.88;5056605;28;45396;-58
2023/04/18 02:14:20;;;;;;;;;70.25;56.50;;;;;11.55;64.38;101441.97;5056807;28;45460;-58
2023/04/18 02:16:46;;;;;;;;;65.00;52.50;;;;;11.55;63.91;101440.19;5056449;28;45485;-58
2023/04/18 02:19:11;;;;;;;;;64.50;53.00;;;;;11.50;64.61;101439.47;5056284;28;46146;-58
2023/04/18 02:21:36;;;;;;;;;70.00;56.00;;;;;11.44;63.99;101419.38;5055957;28;45478;-57
2023/04/18 02:24:01;;;;;;;;;69.50;55.25;;;;;11.47;64.00;101419.34;5056241;28;45518;-58
2023/04/18 02:26:27;;;;;;;;;68.00;55.00;;;;;11.55;63.99;101437.56;5055721;28;47290;-57
2023/04/18 02:28:52;;;;;;;;;67.75;53.00;;;;;11.52;64.67;101435.00;5056009;28;49881;-58
2023/04/18 02:31:17;;;;;;;;;70.50;56.00;;;;;11.53;64.40;101428.00;5055835;28;45467;-58
2023/04/18 02:33:45;;;;;;;;;68.75;53.75;;;;;11.53;63.86;101438.53;5056314;28;45442;-57
2023/04/18 02:36:14;;;;;;;;;68.75;53.25;;;;;11.53;64.26;101434.13;5055911;28;45739;-57
2023/04/18 02:38:39;;;;;;;;;66.50;54.00;;;;;11.53;64.18;101431.47;5056006;28;46192;-57
2023/04/18 02:41:04;;;;;;;;;67.75;55.00;;;;;11.54;64.11;101438.47;5056166;28;45499;-58
2023/04/18 02:43:30;;;;;;;;;69.00;55.00;;;;;11.52;63.78;101426.25;5055086;28;53019;-57
2023/04/18 02:45:55;;;;;;;;;72.25;56.25;;;;;11.44;63.79;101429.06;5055630;28;45514;-58
2023/04/18 02:48:22;;;;;;;;;67.75;55.25;;;;;11.44;64.38;101423.81;5055453;28;45430;-58
2023/04/18 02:50:47;;;;;;;;;64.25;52.00;;;;;11.43;64.27;101422.09;5054471;28;45701;-58
2023/04/18 02:53:12;;;;;;;;;66.25;52.75;;;;;11.47;64.34;101428.97;5055779;28;45482;-58
2023/04/18 02:55:38;;;;;;;;;69.50;56.50;;;;;11.50;64.06;101415.75;5055916;28;45452;-58
2023/04/18 02:58:03;;;;;;;;;69.50;55.00;;;;;11.50;63.13;101411.34;5055329;28;56893;-58
2023/04/18 03:00:29;;;;;;;;;69.50;55.75;;;;;11.53;63.03;101415.69;5055452;28;45415;-58
2023/04/18 03:02:54;;;;;;;;;64.00;53.00;;;;;11.53;63.42;101414.81;5055862;28;45420;-57
2023/04/18 03:05:20;;;;;;;;;67.50;53.00;;;;;11.49;63.69;101417.50;5055500;28;45660;-57
2023/04/18 03:07:46;;;;;;;;;68.50;54.00;;;;;11.44;63.49;101419.38;5055464;28;46228;-58
2023/04/18 03:10:11;;;;;;;;;70.50;55.25;;;;;11.44;63.77;101413.25;5055383;28;45458;-58
2023/04/18 03:12:36;;;;;;;;;69.75;54.50;;;;;11.44;63.03;101418.53;5055700;28;45361;-58
2023/04/18 03:15:02;;;;;;;;;66.50;53.75;;;;;11.36;63.70;101395.03;5055659;28;45576;-58
2023/04/18 03:17:27;;;;;;;;;68.00;55.25;;;;;11.47;62.67;101414.06;5053705;28;46406;-58
2023/04/18 03:19:53;;;;;;;;;68.75;55.25;;;;;11.48;62.97;101417.56;5055269;28;45342;-58
2023/04/18 03:22:18;;;;;;;;;70.25;55.00;;;;;11.43;63.16;101412.41;5055258;28;45377;-57
2023/04/18 03:24:44;;;;;;;;;70.50;56.00;;;;;11.40;62.95;101409.00;5055420;28;45498;-58
2023/04/18 03:27:10;;;;;;;;;70.50;53.75;;;;;11.38;62.89;101419.56;5055275;28;46191;-58
2023/04/18 03:29:35;;;;;;;;;71.00;56.25;;;;;11.35;63.76;101408.25;5055138;28;45443;-58
2023/04/18 03:32:00;;;;;;;;;69.00;54.75;;;;;11.35;62.94;101416.16;5055460;28;45715;-58
2023/04/18 03:34:26;;;;;;;;;68.50;56.00;;;;;11.26;63.11;101420.75;5055256;28;45569;-58
2023/04/18 03:36:51;;;;;;;;;70.25;54.00;;;;;11.27;63.97;101416.34;5055112;28;45509;-58
2023/04/18 03:39:17;;;;;;;;;68.50;55.00;;;;;11.25;63.46;101405.81;5054614;28;53181;-58
2023/04/18 03:41:42;;;;;;;;;68.00;54.75;;;;;11.08;63.11;101386.97;5055294;28;45890;-57
2023/04/18 03:44:08;;;;;;;;;67.75;53.00;;;;;11.25;63.11;101404.97;5054648;28;57286;-58
2023/04/18 03:46:33;;;;;;;;;65.50;52.00;;;;;11.21;64.32;101417.34;5054884;28;45965;-58
2023/04/18 03:48:59;;;;;;;;;68.00;55.00;;;;;11.21;63.18;101409.47;5055220;28;45464;-58
2023/04/18 03:51:25;;;;;;;;;69.50;55.00;;;;;11.11;64.48;101402.69;5055178;28;45517;-58
2023/04/18 03:53:50;;;;;;;;;70.75;55.50;;;;;11.15;63.46;101404.34;5056639;28;45426;-57
2023/04/18 03:56:15;;;;;;;;;67.50;54.00;;;;;11.12;64.31;101396.50;5058314;28;45460;-58
2023/04/18 03:58:41;;;;;;;;;68.75;54.25;;;;;11.16;63.60;101406.06;5058587;28;45379;-58
2023/04/18 04:01:06;;;;;;;;;64.25;52.00;;;;;11.18;63.43;101406.03;5058230;28;52957;-58
2023/04/18 04:03:32;;;;;;;;;69.75;55.25;;;;;11.12;64.14;101396.50;5058573;28;45426;-58
2023/04/18 04:05:57;;;;;;;;;73.00;55.75;;;;;11.18;64.02;101406.03;5058303;28;46131;-58
2023/04/18 04:08:22;;;;;;;;;72.00;56.25;;;;;11.16;63.69;101403.44;5058152;28;45365;-58
2023/04/18 04:10:47;;;;;;;;;70.25;56.00;;;;;11.13;64.81;101402.66;5058574;28;45484;-58
2023/04/18 04:13:13;;;;;;;;;68.25;54.75;;;;;11.11;64.80;101400.06;5056651;28;56854;-57
2023/04/18 04:15:38;;;;;;;;;69.25;54.75;;;;;11.14;64.65;101399.97;5055463;28;45441;-57
2023/04/18 04:18:05;;;;;;;;;70.25;55.00;;;;;11.12;64.47;101400.91;5058483;28;45440;-58
2023/04/18 04:20:30;;;;;;;;;70.75;55.50;;;;;11.10;64.01;101390.44;5058045;28;45438;-57
2023/04/18 04:22:57;;;;;;;;;68.50;54.00;;;;;11.11;64.53;101394.78;5056895;28;45637;-58
2023/04/18 04:25:27;;;;;;;;;69.50;56.00;;;;;11.09;64.84;101399.22;5058082;28;45557;-58
2023/04/18 04:27:53;;;;;;;;;66.25;52.00;;;;;11.08;64.81;101400.13;5058025;28;45482;-58
2023/04/18 04:30:19;;;;;;;;;66.00;54.00;;;;;11.11;64.64;101404.47;5058069;28;45463;-58
2023/04/18 04:32:45;;;;;;;;;67.75;54.75;;;;;11.02;65.08;101397.66;5058297;28;45606;-58
2023/04/18 04:35:10;;;;;;;;;67.25;53.75;;;;;11.02;65.46;101400.28;5057791;28;45499;-58
2023/04/18 04:37:35;;;;;;;;;73.50;59.00;;;;;10.86;64.82;101369.97;5057777;28;45482;-58
2023/04/18 04:40:03;;;;;;;;;72.75;57.00;;;;;10.99;65.79;101395.97;5058158;28;45445;-58
2023/04/18 04:42:28;;;;;;;;;71.00;55.75;;;;;10.97;65.80;101397.75;5056759;28;45609;-58
2023/04/18 04:44:54;;;;;;;;;68.25;54.50;;;;;10.98;65.72;101388.09;5057423;28;56723;-58
2023/04/18 04:47:19;;;;;;;;;71.25;55.25;;;;;11.00;65.44;101394.19;5057370;28;58572;-58
2023/04/18 04:49:44;;;;;;;;;65.75;52.25;;;;;10.87;65.61;101374.34;5057731;28;45877;-58
2023/04/18 04:52:10;;;;;;;;;69.75;56.50;;;;;10.97;66.20;101392.50;5056686;28;45485;-58
2023/04/18 04:54:35;;;;;;;;;72.00;56.00;;;;;10.91;65.40;101395.28;5057492;28;45577;-58
2023/04/18 04:57:01;;;;;;;;;67.75;54.50;;;;;10.90;66.04;101400.56;5057291;28;53982;-57
2023/04/18 04:59:26;;;;;;;;;71.50;55.75;;;;;10.80;65.27;101385.00;5057695;28;45401;-58
2023/04/18 05:01:51;;;;;;;;;72.00;57.00;;;;;10.81;66.31;101384.09;5057552;28;45510;-58
2023/04/18 05:04:17;;;;;;;;;71.50;56.25;;;;;10.81;65.72;101391.13;5057293;28;50063;-58
2023/04/18 05:06:42;;;;;;;;;69.00;55.00;;;;;10.89;65.94;101402.34;5057679;28;45442;-58
2023/04/18 05:09:07;;;;;;;;;70.25;55.00;;;;;10.91;66.02;101400.56;5057987;28;45590;-58
2023/04/18 05:11:32;;;;;;;;;69.50;55.50;;;;;10.88;65.87;101397.09;5057193;28;59568;-58
2023/04/18 05:13:58;;;;;;;;;72.50;57.50;;;;;10.76;66.18;101391.22;5057323;28;53942;-58
2023/04/18 05:16:23;;;;;;;;;72.50;56.75;;;;;10.78;66.68;101392.06;5057076;28;45459;-58
2023/04/18 05:18:49;;;;;;;;;69.25;56.50;;;;;10.79;66.54;101398.19;5057244;28;45766;-58
2023/04/18 05:21:14;;;;;;;;;72.00;56.00;;;;;10.79;66.30;101400.81;5057131;28;45712;-57
2023/04/18 05:23:39;;;;;;;;;77.50;61.25;;;;;10.78;67.08;101392.06;5057349;28;45378;-57
2023/04/18 05:26:05;;;;;;;;;73.00;56.25;;;;;10.78;66.16;101399.97;5057156;28;45512;-57
2023/04/18 05:28:31;;;;;;;;;75.25;60.75;;;;;10.79;66.57;101396.41;5057258;28;45503;-57
2023/04/18 05:30:59;;;;;;;;;72.00;57.25;;;;;10.76;66.99;101409.66;5057094;28;45579;-57
2023/04/18 05:33:31;;;;;;;;;71.50;55.00;;;;;10.79;66.49;101408.72;5057385;27;45365;-57
2023/04/18 05:35:57;;;;;;;;;71.25;57.75;;;;;10.85;66.82;101408.56;5056813;28;45553;-57
2023/04/18 05:38:23;;;;;;;;;69.50;54.75;;;;;10.86;67.23;101406.81;5056922;28;45580;-57
2023/04/18 05:40:54;;;;;;;;;71.25;55.75;;;;;10.84;67.15;101404.22;5056854;28;45553;-57
2023/04/18 05:43:19;;;;;;;;;73.00;57.00;;;;;10.76;66.92;101399.13;5056783;28;45415;-57
2023/04/18 05:45:45;;;;;;;;;70.00;55.75;;;;;10.80;67.05;101394.66;5056823;28;45491;-57
2023/04/18 05:48:11;;;;;;;;;73.50;58.25;;;;;10.90;66.91;101409.31;5056804;28;45453;-57
2023/04/18 05:50:36;;;;;;;;;72.50;56.25;;;;;10.91;66.65;101407.56;5056940;28;45383;-57
2023/04/18 05:53:02;;;;;;;;;70.00;55.25;;;;;10.95;66.79;101410.09;5056467;28;46158;-57
2023/04/18 05:55:27;;;;;;;;;71.25;56.00;;;;;10.75;66.57;101373.72;5056713;28;45437;-57
2023/04/18 05:57:52;;;;;;;;;73.75;58.25;;;;;10.92;66.48;101401.41;5056601;28;45371;-57
2023/04/18 06:00:18;;;;;;;;;72.50;57.50;;;;;11.00;66.66;101407.34;5056487;28;45431;-57
2023/04/18 06:02:44;;;;;;;;;72.00;55.00;;;;;11.00;66.64;101415.25;5056727;28;45474;-57
2023/04/18 06:05:09;;;;;;;;;67.50;54.00;;;;;10.96;65.71;101411.84;5056276;28;45432;-57
2023/04/18 06:07:35;;;;;;;;;68.50;55.25;;;;;10.91;66.32;101408.44;5056673;28;45405;-57
2023/04/18 06:10:00;;;;;;;;;73.00;55.50;;;;;10.89;66.06;101410.25;5053386;28;45546;-59
2023/04/18 06:12:25;;;;;;;;;68.00;55.00;;;;;10.82;66.49;101412.13;5056325;28;46216;-57
2023/04/18 06:14:51;;;;;;;;;71.25;56.00;;;;;10.84;66.59;101406.84;5056258;28;45423;-59
2023/04/18 06:17:16;;;;;;;;;72.75;56.25;;;;;10.89;65.93;101412.00;5052235;28;45479;-57
2023/04/18 06:19:42;;;;;;;;;71.75;57.25;;;;;10.78;65.83;101397.34;5056265;28;45463;-58
2023/04/18 06:22:07;;;;;;;;;71.75;53.50;;;;;10.85;66.63;101411.19;5055901;28;45572;-57
2023/04/18 06:24:33;;;;;;;;;71.00;56.00;;;;;10.87;66.68;101424.34;5055814;28;45371;-59
2023/04/18 06:26:58;;;;;;;;;66.25;53.00;;;;;10.75;66.58;101394.78;5056245;28;45380;-59
2023/04/18 06:29:26;;;;;;;;;70.75;54.25;;;;;10.83;66.40;101403.34;5055909;28;45364;-59
2023/04/18 06:31:51;;;;;;;;;69.50;54.25;;;;;10.89;66.28;101407.59;5055801;28;46052;-59
2023/04/18 06:34:16;;;;;;;;;66.75;54.50;;;;;10.90;66.11;101411.09;5055319;28;53164;-59
2023/04/18 06:36:42;;;;;;;;;67.25;54.25;;;;;10.87;65.86;101406.78;5055880;28;45716;-59
2023/04/18 06:39:07;;;;;;;;;71.25;56.75;;;;;10.88;66.30;101407.63;5055971;28;45442;-59
2023/04/18 06:41:33;;;;;;;;;69.75;53.50;;;;;10.89;65.83;101410.25;5055336;28;45422;-59
2023/04/18 06:43:58;;;;;;;;;71.75;53.75;;;;;10.89;66.07;101414.66;5055792;28;45402;-58
2023/04/18 06:46:23;;;;;;;;;70.00;53.50;;;;;10.88;65.49;101400.63;5055518;28;45455;-58
2023/04/18 06:48:50;;;;;;;;;72.00;56.25;;;;;10.94;65.40;101407.50;5055705;28;45518;-58
2023/04/18 06:51:15;;;;;;;;;68.25;54.50;;;;;10.97;66.41;101410.91;5055753;28;45958;-59
2023/04/18 06:53:40;;;;;;;;;64.75;52.00;;;;;10.98;65.92;101399.47;5055706;28;45374;-58
2023/04/18 06:56:06;;;;;;;;;67.75;54.75;;;;;11.02;65.49;101416.09;5055785;28;45517;-58
2023/04/18 06:58:31;;;;;;;;;69.00;55.50;;;;;11.04;65.80;101406.34;5055665;28;45350;-58
2023/04/18 07:00:57;;;;;;;;;68.50;55.00;;;;;11.06;65.48;101408.06;5054541;28;45450;-58
2023/04/18 07:03:22;;;;;;;;;66.00;52.75;;;;;11.11;64.98;101407.09;5054781;28;45421;-58
2023/04/18 07:05:49;;;;;;;;;70.25;55.00;;;;;11.15;65.10;101407.00;5055001;28;53597;-58
2023/04/18 07:08:14;;;;;;;;;69.50;52.75;;;;;11.16;64.79;101408.69;5055175;28;45351;-58
2023/04/18 07:10:40;;;;;;;;;69.00;55.25;;;;;11.20;64.50;101417.38;5055304;28;45609;-62
2023/04/18 07:13:05;;;;;;;;;71.75;54.00;;;;;11.20;64.75;101406.84;5055222;28;45523;-58
2023/04/18 07:15:33;;;;;;;;;69.25;55.00;;;;;11.19;64.99;101406.00;5055258;28;45426;-58
2023/04/18 07:17:59;;;;;;;;;71.25;55.50;;;;;11.15;64.87;101400.81;5055561;28;45549;-58
2023/04/18 07:20:24;;;;;;;;;69.25;54.75;;;;;11.15;64.82;101406.09;5055022;28;45907;-58
2023/04/18 07:22:49;;;;;;;;;68.25;54.00;;;;;11.14;65.70;101410.50;5053820;28;45518;-58
2023/04/18 07:25:15;;;;;;;;;69.75;57.00;;;;;11.06;64.84;101392.25;5054801;28;54268;-58
2023/04/18 07:27:40;;;;;;;;;71.25;56.25;;;;;11.10;64.65;101398.34;5054326;28;45475;-58
2023/04/18 07:30:06;;;;;;;;;71.25;55.75;;;;;11.18;64.86;101409.53;5055014;28;46099;-58
2023/04/18 07:32:31;;;;;;;;;72.75;56.25;;;;;11.18;64.34;101406.91;5055041;28;45320;-59
2023/04/18 07:34:57;;;;;;;;;66.75;52.00;;;;;11.14;65.60;101401.75;5055166;28;45470;-58
2023/04/18 07:37:23;;;;;;;;;69.50;55.75;;;;;11.12;65.14;101391.25;5055177;28;45516;-59
2023/04/18 07:39:50;;;;;;;;;70.25;54.50;;;;;11.24;65.58;101406.75;5054836;28;46070;-58
2023/04/18 07:42:15;;;;;;;;;69.50;55.25;;;;;11.30;65.14;101404.88;5055069;28;45391;-58
2023/04/18 07:44:42;;;;;;;;;70.00;56.00;;;;;11.25;64.22;101395.28;5054907;28;45619;-58
2023/04/18 07:47:10;;;;;;;;;71.75;57.00;;;;;11.34;65.07;101401.22;5055098;28;45407;-59
2023/04/18 07:49:37;;;;;;;;;71.75;56.75;;;;;11.31;64.22;101404.84;5055158;28;45418;-58
2023/04/18 07:52:03;;;;;;;;;70.75;56.00;;;;;11.31;64.00;101398.69;5056323;28;45471;-59
2023/04/18 07:54:28;;;;;;;;;72.00;55.50;;;;;11.26;64.04;101398.81;5057002;28;45418;-59
2023/04/18 07:56:54;;;;;;;;;66.50;53.50;;;;;11.27;64.08;101393.50;5054974;28;45434;-59
2023/04/18 07:59:19;;;;;;;;;72.50;55.50;;;;;11.24;64.49;101393.56;5054660;28;45712;-57
2023/04/18 08:01:44;;;;;;;;;70.75;55.50;;;;;11.26;64.72;101394.41;5054652;28;45768;-59
2023/04/18 08:04:10;;;;;;;;;74.00;58.50;;;;;11.24;64.45;101390.94;5054860;28;45466;-59
2023/04/18 08:06:36;;;;;;;;;68.25;53.50;;;;;11.23;63.53;101394.50;5054758;28;45383;-57
2023/04/18 08:09:04;;;;;;;;;71.25;55.75;;;;;11.18;63.81;101385.84;5054591;28;45460;-57
2023/04/18 08:11:33;;;;;;;;;71.75;56.00;;;;;11.18;64.29;101379.72;5054481;28;45305;-57
2023/04/18 08:13:58;;;;;;;;;71.25;57.00;;;;;11.17;64.26;101370.94;5054660;28;45520;-57
2023/04/18 08:16:24;;;;;;;;;67.25;53.25;;;;;11.31;64.37;101390.78;5054556;28;45793;-57
2023/04/18 08:18:49;;;;;;;;;67.00;53.75;;;;;11.34;63.10;101388.06;5054597;28;45427;-58
2023/04/18 08:21:15;;;;;;;;;65.00;53.00;;;;;11.37;64.02;101385.38;5054218;28;45596;-57
2023/04/18 08:23:40;;;;;;;;;68.50;53.25;;;;;11.41;64.18;101381.75;5054584;28;45419;-59
2023/04/18 08:26:05;;;;;;;;;72.75;59.00;;;;;11.39;63.52;101376.53;5054286;28;45659;-59
2023/04/18 08:28:31;;;;;;;;;72.50;56.00;;;;;11.42;62.64;101386.13;5054382;28;46119;-59
2023/04/18 08:30:56;;;;;;;;;71.50;55.50;;;;;11.35;62.71;101366.09;5054402;28;45380;-59
2023/04/18 08:33:23;;;;;;;;;67.75;55.00;;;;;11.50;62.51;101378.88;5054628;28;45485;-58
2023/04/18 08:35:49;;;;;;;;;66.00;52.00;;;;;11.54;63.25;101380.50;5054281;28;45483;-58
2023/04/18 08:38:16;;;;;;;;;67.50;54.50;;;;;11.62;62.00;101388.22;5053132;28;46557;-58
2023/04/18 08:40:45;;;;;;;;;69.25;55.50;;;;;11.63;62.53;101382.91;5056859;28;45415;-58
2023/04/18 08:43:13;;;;;;;;;67.00;53.00;;;;;11.68;63.03;101375.72;5057506;28;45489;-59
2023/04/18 08:45:43;;;;;;;;;66.25;53.50;;;;;11.77;62.53;101379.91;5057750;28;45426;-58
2023/04/18 08:48:16;;;;;;;;;61.25;50.25;;;;;11.82;61.97;101383.28;5057462;28;46231;-59
2023/04/18 08:50:42;;;;;;;;;66.50;52.25;;;;;11.86;62.02;101378.81;5057627;28;45376;-58
2023/04/18 08:53:08;;;;;;;;;70.75;54.25;;;;;11.88;61.93;101375.22;5057524;28;45447;-58
2023/04/18 08:55:34;;;;;;;;;65.00;53.00;;;;;11.92;61.81;101373.34;5057622;28;45586;-58
2023/04/18 08:58:00;;;;;;;;;68.00;53.50;;;;;11.99;61.68;101374.06;5057268;28;45978;-58
2023/04/18 09:00:26;;;;;;;;;67.75;53.75;;;;;12.00;60.84;101374.00;5057361;28;45450;-58
2023/04/18 09:02:58;;;;;;;;;65.50;52.25;;;;;12.00;61.32;101359.94;5057691;28;45462;-59
2023/04/18 09:05:25;;;;;;;;;62.25;52.00;;;;;12.03;61.27;101373.91;5057309;28;45454;-58
2023/04/18 09:07:53;;;;;;;;;66.50;52.00;;;;;12.07;60.54;101369.41;5056923;28;45423;-58
2023/04/18 09:10:29;;;;;;;;;64.25;51.75;;;;;12.10;60.08;101362.28;5057170;28;45391;-58
2023/04/18 09:12:56;;;;;;;;;62.50;51.75;;;;;12.14;59.81;101363.03;5057117;28;45506;-58
2023/04/18 09:15:25;;;;;;;;;66.25;53.50;;;;;12.18;59.77;101369.09;5057117;28;45586;-58
2023/04/18 09:17:52;;;;;;;;;66.75;52.00;;;;;12.23;60.07;101356.66;5057193;28;46011;-58
2023/04/18 09:20:39;;;;;;;;;58.50;49.25;;;;;12.25;59.20;101357.44;5057409;28;45423;-58
2023/04/18 09:23:10;;;;;;;;;65.75;50.00;;;;;12.28;59.41;101352.97;5057350;28;45383;-58
2023/04/18 09:25:37;;;;;;;;;62.75;51.75;;;;;12.30;58.74;101351.13;5057129;28;45479;-58
2023/04/18 09:28:23;;;;;;;;;68.50;53.75;;;;;12.25;58.92;101337.22;5056923;28;45502;-57
2023/04/18 09:30:53;;;;;;;;;65.50;51.50;;;;;12.35;58.92;101343.94;5056427;28;45413;-57
2023/04/18 09:33:32;;;;;;;;;63.50;51.75;;;;;12.41;59.70;101344.66;5055786;28;45447;-57
2023/04/18 09:36:20;;;;;;;;;63.50;52.00;;;;;12.44;59.36;101348.09;5056749;28;45462;-57
2023/04/18 09:38:46;;;;;;;;;57.75;47.25;;;;;12.47;59.30;101336.56;5056901;28;46269;-57
2023/04/18 09:41:14;;;;;;;;;62.75;49.75;;;;;12.49;59.00;101338.25;5056744;28;45364;-58
2023/04/18 09:43:40;;;;;;;;;61.25;49.75;;;;;12.47;57.71;101323.38;5056836;28;45403;-59
2023/04/18 09:46:06;;;;;;;;;63.50;50.50;;;;;12.55;58.23;101337.19;5056809;28;45546;-57
2023/04/18 09:48:32;;;;;;;;;60.75;49.25;;;;;12.52;58.16;101316.16;5056617;28;46089;-59
2023/04/18 09:51:04;;;;;;;;;60.25;49.25;;;;;12.63;58.03;101324.63;5055602;28;45597;-59
2023/04/18 09:53:30;;;;;;;;;61.50;49.25;;;;;12.68;57.90;101327.09;5056658;28;45309;-59
2023/04/18 09:55:56;;;;;;;;;62.50;49.50;;;;;12.72;58.13;101316.38;5056400;28;45376;-59
2023/04/18 09:58:24;;;;;;;;;63.00;50.25;;;;;12.69;57.10;101307.72;5055993;28;45478;-58
2023/04/18 10:00:52;;;;;;;;;63.50;51.00;;;;;12.81;57.20;101316.09;5056411;28;45463;-58
2023/04/18 10:03:18;;;;;;;;;59.50;49.00;;;;;12.83;56.94;101311.59;5056253;28;45461;-59
2023/04/18 10:05:44;;;;;;;;;61.00;49.00;;;;;12.84;57.02;101312.47;5056270;28;45451;-58
2023/04/18 10:08:12;;;;;;;;;57.00;46.50;;;;;12.95;57.07;101318.28;5055867;28;45417;-58
2023/04/18 10:10:38;;;;;;;;;62.00;49.00;;;;;12.92;56.44;101301.66;5056311;28;45459;-58
2023/04/18 10:13:07;;;;;;;;;59.00;47.50;;;;;12.98;56.44;101297.03;5056075;28;45542;-58
2023/04/18 10:15:32;;;;;;;;;56.50;47.00;;;;;13.04;56.25;101293.31;5054396;28;45399;-58
2023/04/18 10:18:21;;;;;;;;;59.25;48.50;;;;;13.08;55.61;101294.94;5055785;28;46360;-57
2023/04/18 10:20:46;;;;;;;;;60.50;47.75;;;;;13.14;56.18;101293.88;5055584;28;45613;-58
2023/04/18 10:23:30;;;;;;;;;56.50;46.75;;;;;13.18;56.12;101298.13;5055809;28;45507;-58
2023/04/18 10:25:55;;;;;;;;;63.00;48.75;;;;;13.23;55.15;101293.56;5055786;28;45494;-58
2023/04/18 10:28:23;;;;;;;;;63.75;49.00;;;;;13.26;55.41;101286.41;5056141;28;45491;-58
2023/04/18 10:30:50;;;;;;;;;64.75;51.75;;;;;13.28;55.17;101270.50;5057023;28;45570;-58
2023/04/18 10:33:22;;;;;;;;;58.75;46.50;;;;;13.30;54.57;101276.59;5056613;28;45435;-58
2023/04/18 10:36:07;;;;;;;;;57.25;46.75;;;;;13.29;54.89;101266.94;5055791;28;45510;-58
2023/04/18 10:38:33;;;;;;;;;59.25;46.75;;;;;13.34;54.97;101265.00;5055662;28;45545;-58
2023/04/18 10:41:26;;;;;;;;;62.75;49.75;;;;;13.36;54.47;101264.94;5055186;28;45467;-59
2023/04/18 10:44:21;;;;;;;;;57.75;47.25;;;;;13.39;53.53;101264.84;5055619;28;45548;-58
2023/04/18 10:46:49;;;;;;;;;57.00;47.00;;;;;13.18;53.52;101219.75;5055386;28;45443;-59
2023/04/18 10:49:25;;;;;;;;;58.25;48.00;;;;;13.38;53.62;101247.25;5055215;28;46141;-58
2023/04/18 10:51:57;;;;;;;;;53.25;44.50;;;;;13.48;53.25;101252.13;5053924;28;45475;-58
2023/04/18 10:54:37;;;;;;;;;59.25;47.00;;;;;13.54;53.42;101252.81;5055359;28;45477;-58
2023/04/18 10:57:06;;;;;;;;;58.25;47.50;;;;;13.59;53.81;101248.22;5053933;28;45402;-58
2023/04/18 10:59:36;;;;;;;;;59.50;49.00;;;;;13.62;53.73;101249.00;5054137;28;46978;-58
2023/04/18 11:02:29;;;;;;;;;56.25;47.25;;;;;13.61;53.86;101246.41;5054622;28;45371;-58
2023/04/18 11:05:00;;;;;;;;;53.00;43.25;;;;;13.71;52.79;101245.13;5054959;28;45522;-57
2023/04/18 11:07:36;;;;;;;;;56.75;47.50;;;;;13.73;52.98;101251.25;5054931;28;45443;-58